Terminal Aerodrome Forecast
Issued by NWS Louisville, KY

Home | Current Version | Previous Version | Text Only | Print | Product List | Glossary On
Versions: 1 2 3 4 5 6 7 8 9 10 11 12 13 14 15
000
FTUS43 KLMK 271100
TAFBWG
TAF
KBWG 271120Z 2712/2812 VRB03KT 6SM BR FEW030
      TEMPO 2712/2714 5SM BR
     FM271600 33008KT P6SM BKN040
     FM271800 33008KT P6SM VCSH BKN035
     FM280100 VRB04KT P6SM SKC=

USA.gov is the U.S. government's official web portal to all federal, state and local government web resources and services.